Time;durP1;ratioP1;P1;durP2;ratioP2;P2;SDS_P1;SDS_P2;PMS_P1;PMS_P2;Temp;Humidity;BMP_temperature;BMP_pressure;BME280_temperature;BME280_humidity;BME280_pressure;Samples;Min_cycle;Max_cycle;Signal;HPM_P1;HPM_P2
2022/04/14 00:01:08;;;;;;;11.93;10.27;;;;;;;;;;5080105;28;20040;-62
2022/04/14 00:03:34;;;;;;;14.07;8.85;;;;;;;;;;5057397;28;20055;-62
2022/04/14 00:06:00;;;;;;;15.75;9.52;;;;;;;;;;5081338;28;20039;-62
2022/04/14 00:08:26;;;;;;;15.23;10.65;;;;;;;;;;5082780;28;20066;-62
2022/04/14 00:10:53;;;;;;;13.93;9.95;;;;;;;;;;5087470;28;20077;-62
2022/04/14 00:13:19;;;;;;;16.23;10.60;;;;;;;;;;5086299;28;20070;-62
2022/04/14 00:15:45;;;;;;;17.92;10.63;;;;;;;;;;5072726;28;20516;-62
2022/04/14 00:18:11;;;;;;;12.45;10.30;;;;;;;;;;5070133;28;20041;-62
2022/04/14 00:20:37;;;;;;;13.13;10.00;;;;;;;;;;5082928;28;20044;-62
2022/04/14 00:23:04;;;;;;;15.02;10.13;;;;;;;;;;5088882;28;20040;-62
2022/04/14 00:25:30;;;;;;;17.73;9.60;;;;;;;;;;5070013;28;20046;-62
2022/04/14 00:27:56;;;;;;;16.73;10.30;;;;;;;;;;5080204;28;20449;-62
2022/04/14 00:30:22;;;;;;;15.23;10.48;;;;;;;;;;5071256;28;20040;-62
2022/04/14 00:32:48;;;;;;;18.88;11.57;;;;;;;;;;5066770;28;20044;-62
2022/04/14 00:35:14;;;;;;;15.20;10.77;;;;;;;;;;5076339;28;20043;-62
2022/04/14 00:37:40;;;;;;;19.40;9.98;;;;;;;;;;5083892;28;20074;-60
2022/04/14 00:40:08;;;;;;;14.65;10.52;;;;;;;;;;5089601;28;20125;-62
2022/04/14 00:42:34;;;;;;;14.75;10.32;;;;;;;;;;5077164;28;20618;-62
2022/04/14 00:45:00;;;;;;;16.05;10.63;;;;;;;;;;5074082;28;20032;-62
2022/04/14 00:47:26;;;;;;;18.33;11.43;;;;;;;;;;5078660;28;20567;-62
2022/04/14 00:49:53;;;;;;;16.48;12.18;;;;;;;;;;5089658;28;20040;-62
2022/04/14 00:52:21;;;;;;;16.00;10.98;;;;;;;;;;5080542;28;20090;-62
2022/04/14 00:54:47;;;;;;;16.88;11.90;;;;;;;;;;5058656;28;20954;-61
2022/04/14 00:57:14;;;;;;;15.00;10.80;;;;;;;;;;5070982;28;20127;-61
2022/04/14 00:59:41;;;;;;;18.42;11.75;;;;;;;;;;5088300;28;20577;-61
2022/04/14 01:02:08;;;;;;;19.30;11.65;;;;;;;;;;5086464;28;20136;-61
2022/04/14 01:04:34;;;;;;;17.83;12.05;;;;;;;;;;5056118;28;20260;-61
2022/04/14 01:07:00;;;;;;;15.52;11.02;;;;;;;;;;5070983;28;20064;-61
2022/04/14 01:09:28;;;;;;;16.35;11.27;;;;;;;;;;5086662;28;20095;-61
2022/04/14 01:11:55;;;;;;;20.63;14.35;;;;;;;;;;5068140;28;20043;-61
2022/04/14 01:14:29;;;;;;;17.80;12.25;;;;;;;;;;5088520;28;20379;-61
2022/04/14 01:16:55;;;;;;;18.17;11.90;;;;;;;;;;5088134;28;20058;-61
2022/04/14 01:19:22;;;;;;;18.38;12.70;;;;;;;;;;5082117;28;20046;-61
2022/04/14 01:22:01;;;;;;;17.08;11.73;;;;;;;;;;5087001;28;20099;-61
2022/04/14 01:24:28;;;;;;;19.52;13.38;;;;;;;;;;5064291;28;20028;-61
2022/04/14 01:26:54;;;;;;;16.05;12.32;;;;;;;;;;5084795;28;20144;-61
2022/04/14 01:29:26;;;;;;;19.00;13.10;;;;;;;;;;5066437;28;20040;-61
2022/04/14 01:31:53;;;;;;;18.73;12.90;;;;;;;;;;5072038;28;20070;-61
2022/04/14 01:34:19;;;;;;;16.88;11.75;;;;;;;;;;5083734;28;20032;-61
2022/04/14 01:36:45;;;;;;;16.35;12.38;;;;;;;;;;5092297;28;20039;-61
2022/04/14 01:39:13;;;;;;;20.50;12.75;;;;;;;;;;5066944;28;20051;-61
2022/04/14 01:41:42;;;;;;;19.92;13.35;;;;;;;;;;5082381;28;20051;-61
2022/04/14 01:44:10;;;;;;;19.05;11.80;;;;;;;;;;5085707;28;20461;-61
2022/04/14 01:46:37;;;;;;;18.70;12.75;;;;;;;;;;5088976;28;20039;-61
2022/04/14 01:49:04;;;;;;;18.33;13.18;;;;;;;;;;5069398;28;20383;-61
2022/04/14 01:51:30;;;;;;;18.38;13.45;;;;;;;;;;5092626;28;20047;-61
2022/04/14 01:53:56;;;;;;;19.60;15.05;;;;;;;;;;5092342;28;20416;-61
2022/04/14 01:56:23;;;;;;;19.52;13.70;;;;;;;;;;5091894;28;20093;-61
2022/04/14 01:58:50;;;;;;;18.40;13.55;;;;;;;;;;5084471;28;20115;-61
2022/04/14 02:01:16;;;;;;;16.58;14.35;;;;;;;;;;5087817;28;20202;-61
2022/04/14 02:03:42;;;;;;;20.85;13.75;;;;;;;;;;5073405;28;20028;-61
2022/04/14 02:06:09;;;;;;;23.55;15.30;;;;;;;;;;5091399;28;20040;-61
2022/04/14 02:08:35;;;;;;;19.17;14.30;;;;;;;;;;5092270;28;20051;-61
2022/04/14 02:11:02;;;;;;;19.90;14.27;;;;;;;;;;5091541;28;20050;-61
2022/04/14 02:13:29;;;;;;;19.70;15.07;;;;;;;;;;5077997;28;20032;-61
2022/04/14 02:15:55;;;;;;;24.17;14.95;;;;;;;;;;5091089;28;20038;-61
2022/04/14 02:18:21;;;;;;;24.80;14.43;;;;;;;;;;5091365;28;20040;-61
2022/04/14 02:20:48;;;;;;;25.00;17.50;;;;;;;;;;5091352;28;20182;-61
2022/04/14 02:23:14;;;;;;;20.75;16.15;;;;;;;;;;5091825;28;20036;-61
2022/04/14 02:25:40;;;;;;;23.17;15.93;;;;;;;;;;5091328;28;20039;-61
2022/04/14 02:28:06;;;;;;;21.35;15.27;;;;;;;;;;5080526;28;20044;-61
2022/04/14 02:30:35;;;;;;;23.17;16.25;;;;;;;;;;5069907;28;20040;-61
2022/04/14 02:33:01;;;;;;;26.52;18.13;;;;;;;;;;5056457;28;20432;-61
2022/04/14 02:35:28;;;;;;;26.77;16.55;;;;;;;;;;5083559;28;20402;-61
2022/04/14 02:37:57;;;;;;;25.73;16.10;;;;;;;;;;5084595;28;20044;-61
2022/04/14 02:40:24;;;;;;;27.85;18.67;;;;;;;;;;5090541;28;20055;-61
2022/04/14 02:42:53;;;;;;;22.25;16.42;;;;;;;;;;5080287;28;20482;-61
2022/04/14 02:45:19;;;;;;;23.30;17.75;;;;;;;;;;5086509;28;20044;-61
2022/04/14 02:47:45;;;;;;;22.95;17.60;;;;;;;;;;5083358;28;20151;-61
2022/04/14 02:50:12;;;;;;;22.83;16.40;;;;;;;;;;5090308;28;20792;-61
2022/04/14 02:52:40;;;;;;;25.65;19.08;;;;;;;;;;5083339;28;20559;-61
2022/04/14 02:55:07;;;;;;;32.90;18.38;;;;;;;;;;5079806;28;20078;-62
2022/04/14 02:57:34;;;;;;;22.58;18.98;;;;;;;;;;5060143;28;20113;-62
2022/04/14 03:00:00;;;;;;;24.17;18.77;;;;;;;;;;5085081;28;20047;-62
2022/04/14 03:02:27;;;;;;;30.48;20.95;;;;;;;;;;5071501;28;20109;-62
2022/04/14 03:04:53;;;;;;;28.02;19.33;;;;;;;;;;5090857;28;20059;-62
2022/04/14 03:07:22;;;;;;;31.85;19.35;;;;;;;;;;5084399;28;20044;-62
2022/04/14 03:09:49;;;;;;;29.83;21.02;;;;;;;;;;5090953;28;20177;-62
2022/04/14 03:12:15;;;;;;;25.58;17.73;;;;;;;;;;5077503;28;20443;-62
2022/04/14 03:14:41;;;;;;;28.08;18.88;;;;;;;;;;5090031;28;20040;-62
2022/04/14 03:17:07;;;;;;;36.55;20.65;;;;;;;;;;5068834;28;20450;-62
2022/04/14 03:19:33;;;;;;;28.52;19.73;;;;;;;;;;5089871;28;20072;-62
2022/04/14 03:21:59;;;;;;;28.35;20.42;;;;;;;;;;5088311;28;20124;-62
2022/04/14 03:24:25;;;;;;;25.17;19.60;;;;;;;;;;5090773;28;20478;-62
2022/04/14 03:26:52;;;;;;;29.27;20.33;;;;;;;;;;5086968;28;20444;-62
2022/04/14 03:29:18;;;;;;;33.40;21.23;;;;;;;;;;5090297;28;20114;-62
2022/04/14 03:31:44;;;;;;;27.77;19.77;;;;;;;;;;5086934;28;20119;-62
2022/04/14 03:34:10;;;;;;;26.38;20.08;;;;;;;;;;5076592;28;20040;-62
2022/04/14 03:36:37;;;;;;;31.10;20.52;;;;;;;;;;5090110;28;20044;-62
2022/04/14 03:39:04;;;;;;;27.90;19.73;;;;;;;;;;5088420;28;20367;-62
2022/04/14 03:41:30;;;;;;;28.02;22.15;;;;;;;;;;5086127;28;20413;-62
2022/04/14 03:43:57;;;;;;;25.98;20.08;;;;;;;;;;5090246;28;20044;-62
2022/04/14 03:46:23;;;;;;;29.70;20.80;;;;;;;;;;5081377;28;20116;-62
2022/04/14 03:48:49;;;;;;;29.13;21.45;;;;;;;;;;5083726;28;20118;-62
2022/04/14 03:51:15;;;;;;;28.30;19.65;;;;;;;;;;5086891;28;20050;-62
2022/04/14 03:53:42;;;;;;;29.63;20.55;;;;;;;;;;5075353;28;20084;-62
2022/04/14 03:56:09;;;;;;;28.63;19.40;;;;;;;;;;5085404;28;20041;-62
2022/04/14 03:58:35;;;;;;;28.67;19.95;;;;;;;;;;5083358;28;20040;-62
2022/04/14 04:01:01;;;;;;;27.70;20.00;;;;;;;;;;5089517;28;20401;-62
2022/04/14 04:03:27;;;;;;;27.10;19.77;;;;;;;;;;5074919;28;20481;-62
2022/04/14 04:05:53;;;;;;;28.58;18.42;;;;;;;;;;5089443;28;20036;-62
2022/04/14 04:08:19;;;;;;;31.02;20.55;;;;;;;;;;5076708;28;20033;-62
2022/04/14 04:10:45;;;;;;;25.40;19.17;;;;;;;;;;5075611;28;20673;-61
2022/04/14 04:13:12;;;;;;;32.53;19.75;;;;;;;;;;5054534;28;20649;-62
2022/04/14 04:15:38;;;;;;;27.70;19.27;;;;;;;;;;5089007;28;20044;-62
2022/04/14 04:18:07;;;;;;;24.85;20.13;;;;;;;;;;5085885;28;20040;-62
2022/04/14 04:20:33;;;;;;;29.25;21.13;;;;;;;;;;5071197;28;20287;-62
2022/04/14 04:22:59;;;;;;;26.88;20.48;;;;;;;;;;5073658;28;20488;-62
2022/04/14 04:25:26;;;;;;;27.70;19.00;;;;;;;;;;5089484;28;20032;-62
2022/04/14 04:27:52;;;;;;;25.60;19.38;;;;;;;;;;5079799;28;20040;-62
2022/04/14 04:30:18;;;;;;;28.50;19.90;;;;;;;;;;5084835;28;20046;-62
2022/04/14 04:32:44;;;;;;;28.95;18.92;;;;;;;;;;5067142;28;20129;-62
2022/04/14 04:35:11;;;;;;;27.02;19.83;;;;;;;;;;5082040;28;20049;-62
2022/04/14 04:37:37;;;;;;;26.60;18.73;;;;;;;;;;5056533;28;20064;-62
2022/04/14 04:40:04;;;;;;;24.95;19.35;;;;;;;;;;5084566;28;20458;-62
2022/04/14 04:42:31;;;;;;;26.52;19.52;;;;;;;;;;5078907;28;20033;-62
2022/04/14 04:44:57;;;;;;;25.88;18.50;;;;;;;;;;5088029;28;20032;-62
2022/04/14 04:47:23;;;;;;;26.13;16.83;;;;;;;;;;5076214;28;20387;-62
2022/04/14 04:49:49;;;;;;;24.63;18.23;;;;;;;;;;5086486;28;20043;-61
2022/04/14 04:52:16;;;;;;;26.42;19.23;;;;;;;;;;5081304;28;20127;-61
2022/04/14 04:54:42;;;;;;;26.00;19.80;;;;;;;;;;5067041;28;20116;-61
2022/04/14 04:57:09;;;;;;;26.42;19.13;;;;;;;;;;5081844;28;20076;-62
2022/04/14 04:59:35;;;;;;;31.98;19.20;;;;;;;;;;5068425;28;20052;-62
2022/04/14 05:02:01;;;;;;;32.90;19.90;;;;;;;;;;5087108;28;20115;-62
2022/04/14 05:04:28;;;;;;;35.53;18.63;;;;;;;;;;5089518;28;20036;-62
2022/04/14 05:06:54;;;;;;;61.15;18.80;;;;;;;;;;5093627;28;20105;-62
2022/04/14 05:09:20;;;;;;;50.45;19.30;;;;;;;;;;5068271;28;20047;-62
2022/04/14 05:11:46;;;;;;;36.65;19.92;;;;;;;;;;5081597;28;20040;-61
2022/04/14 05:14:12;;;;;;;49.00;20.50;;;;;;;;;;5064521;28;20531;-61
2022/04/14 05:16:38;;;;;;;86.28;23.23;;;;;;;;;;5086313;28;20036;-61
2022/04/14 05:19:05;;;;;;;47.95;20.40;;;;;;;;;;5070212;28;20245;-61
2022/04/14 05:21:31;;;;;;;41.38;19.05;;;;;;;;;;5083824;28;20398;-61
2022/04/14 05:23:57;;;;;;;42.08;18.40;;;;;;;;;;5081260;28;20048;-61
2022/04/14 05:26:24;;;;;;;36.42;18.52;;;;;;;;;;5089286;28;20067;-61
2022/04/14 05:28:50;;;;;;;32.88;19.15;;;;;;;;;;5072349;28;20389;-61
2022/04/14 05:31:16;;;;;;;50.03;22.33;;;;;;;;;;5091314;28;20509;-61
2022/04/14 05:33:42;;;;;;;41.03;20.08;;;;;;;;;;5072002;28;20040;-61
2022/04/14 05:36:08;;;;;;;30.25;22.02;;;;;;;;;;5091049;28;20036;-61
2022/04/14 05:38:34;;;;;;;26.25;19.95;;;;;;;;;;5071818;28;20466;-62
2022/04/14 05:41:00;;;;;;;27.20;21.55;;;;;;;;;;5088800;28;20032;-61
2022/04/14 05:43:28;;;;;;;25.42;20.15;;;;;;;;;;5091982;28;20044;-61
2022/04/14 05:45:55;;;;;;;27.65;20.42;;;;;;;;;;5072495;28;20558;-61
2022/04/14 05:48:21;;;;;;;28.40;19.60;;;;;;;;;;5080885;28;20088;-61
2022/04/14 05:50:49;;;;;;;29.27;21.20;;;;;;;;;;5089837;28;20123;-61
2022/04/14 05:53:16;;;;;;;31.02;21.17;;;;;;;;;;5092384;28;20455;-61
2022/04/14 05:55:42;;;;;;;29.23;21.98;;;;;;;;;;5092151;28;20066;-61
2022/04/14 05:58:09;;;;;;;32.40;22.67;;;;;;;;;;5081514;28;20643;-61
2022/04/14 06:00:36;;;;;;;30.80;24.00;;;;;;;;;;5068073;28;20042;-62
2022/04/14 06:03:03;;;;;;;32.97;23.45;;;;;;;;;;5091732;28;20067;-61
2022/04/14 06:05:29;;;;;;;33.63;23.23;;;;;;;;;;5091517;28;20036;-61
2022/04/14 06:07:56;;;;;;;30.77;23.33;;;;;;;;;;5090457;28;20032;-61
2022/04/14 06:10:23;;;;;;;28.08;22.85;;;;;;;;;;5073719;28;20043;-61
2022/04/14 06:12:50;;;;;;;33.88;24.02;;;;;;;;;;5091766;28;20075;-61
2022/04/14 06:15:16;;;;;;;33.88;22.58;;;;;;;;;;5090005;28;20039;-61
2022/04/14 06:17:43;;;;;;;28.83;21.23;;;;;;;;;;5085067;28;20094;-61
2022/04/14 06:20:10;;;;;;;27.65;21.60;;;;;;;;;;5081647;28;20446;-61
2022/04/14 06:22:43;;;;;;;35.05;23.05;;;;;;;;;;5087839;28;20044;-62
2022/04/14 06:25:13;;;;;;;34.45;23.10;;;;;;;;;;5087005;28;20507;-61
2022/04/14 06:27:40;;;;;;;29.55;20.85;;;;;;;;;;5087164;28;20482;-61
2022/04/14 06:30:07;;;;;;;31.38;22.48;;;;;;;;;;5087830;28;20071;-61
2022/04/14 06:32:33;;;;;;;32.17;22.52;;;;;;;;;;5084144;28;20044;-61
2022/04/14 06:34:59;;;;;;;31.48;22.40;;;;;;;;;;5083471;28;20082;-61
2022/04/14 06:37:26;;;;;;;29.90;22.40;;;;;;;;;;5084655;28;20044;-61
2022/04/14 06:39:52;;;;;;;34.03;24.02;;;;;;;;;;5085717;28;20508;-61
2022/04/14 06:42:21;;;;;;;33.72;22.70;;;;;;;;;;5085750;28;20477;-62
2022/04/14 06:44:48;;;;;;;31.23;21.50;;;;;;;;;;5086260;28;20043;-62
2022/04/14 06:47:14;;;;;;;28.42;22.05;;;;;;;;;;5084704;28;20052;-61
2022/04/14 06:49:40;;;;;;;33.35;21.48;;;;;;;;;;5066298;28;20066;-61
2022/04/14 06:52:06;;;;;;;32.88;23.17;;;;;;;;;;5081075;28;20043;-61
2022/04/14 06:54:32;;;;;;;32.10;22.40;;;;;;;;;;5082510;28;20408;-62
2022/04/14 06:56:59;;;;;;;34.80;24.00;;;;;;;;;;5082821;28;20039;-61
2022/04/14 06:59:25;;;;;;;32.85;22.02;;;;;;;;;;5069233;28;20039;-61
2022/04/14 07:01:51;;;;;;;31.63;22.75;;;;;;;;;;5081341;28;20046;-61
2022/04/14 07:04:17;;;;;;;32.63;22.38;;;;;;;;;;5083694;28;20623;-61
2022/04/14 07:06:45;;;;;;;30.30;22.30;;;;;;;;;;5084938;28;20032;-61
2022/04/14 07:09:12;;;;;;;34.75;20.30;;;;;;;;;;5086959;28;20540;-61
2022/04/14 07:11:38;;;;;;;29.50;23.30;;;;;;;;;;5083288;28;20058;-61
2022/04/14 07:14:04;;;;;;;29.67;20.08;;;;;;;;;;5082256;28;20052;-61
2022/04/14 07:16:30;;;;;;;31.33;20.08;;;;;;;;;;5081267;28;20040;-61
2022/04/14 07:18:56;;;;;;;32.63;21.48;;;;;;;;;;5083881;28;20421;-61
2022/04/14 07:21:22;;;;;;;29.52;19.67;;;;;;;;;;5080876;28;20039;-61
2022/04/14 07:23:48;;;;;;;26.60;20.52;;;;;;;;;;5081480;28;20043;-61
2022/04/14 07:26:15;;;;;;;28.73;21.95;;;;;;;;;;5083164;28;20461;-61
2022/04/14 07:28:41;;;;;;;29.52;19.70;;;;;;;;;;5085180;28;20358;-60
2022/04/14 07:31:07;;;;;;;28.35;20.75;;;;;;;;;;5086987;28;20055;-61
2022/04/14 07:33:34;;;;;;;28.35;20.98;;;;;;;;;;5081236;28;20474;-61
2022/04/14 07:36:00;;;;;;;31.08;20.55;;;;;;;;;;5076957;28;20055;-63
2022/04/14 07:38:26;;;;;;;31.48;21.88;;;;;;;;;;5084153;28;20493;-61
2022/04/14 07:40:52;;;;;;;30.45;20.92;;;;;;;;;;5061982;28;20047;-61
2022/04/14 07:43:19;;;;;;;30.75;19.33;;;;;;;;;;5077804;28;20079;-61
2022/04/14 07:45:46;;;;;;;27.35;20.73;;;;;;;;;;5064174;28;20504;-61
2022/04/14 07:48:12;;;;;;;32.65;20.27;;;;;;;;;;5082471;28;20056;-61
2022/04/14 07:50:38;;;;;;;33.70;19.80;;;;;;;;;;5085664;28;20497;-61
2022/04/14 07:53:04;;;;;;;31.42;21.88;;;;;;;;;;5082251;28;20044;-61
2022/04/14 07:55:32;;;;;;;28.50;20.73;;;;;;;;;;5082194;28;20193;-61
2022/04/14 07:58:00;;;;;;;27.88;19.42;;;;;;;;;;5082902;28;20052;-61
2022/04/14 08:00:27;;;;;;;29.20;19.00;;;;;;;;;;5082448;28;20050;-61
2022/04/14 08:02:54;;;;;;;26.98;19.60;;;;;;;;;;5084680;28;20494;-61
2022/04/14 08:05:32;;;;;;;27.13;20.13;;;;;;;;;;5075979;28;20236;-61
2022/04/14 08:07:58;;;;;;;24.70;17.90;;;;;;;;;;5080385;28;20490;-61
2022/04/14 08:10:24;;;;;;;28.92;17.92;;;;;;;;;;5085925;28;20127;-61
2022/04/14 08:12:51;;;;;;;27.50;17.83;;;;;;;;;;5080013;28;20055;-61
2022/04/14 08:15:17;;;;;;;24.42;17.55;;;;;;;;;;5081352;28;20279;-61
2022/04/14 08:17:44;;;;;;;29.38;17.85;;;;;;;;;;5083929;28;20201;-61
2022/04/14 08:20:11;;;;;;;27.95;17.10;;;;;;;;;;5084824;28;20036;-61
2022/04/14 08:22:55;;;;;;;26.90;15.30;;;;;;;;;;5065375;28;20056;-61
2022/04/14 08:25:22;;;;;;;27.30;18.65;;;;;;;;;;5075031;28;20385;-61
2022/04/14 08:27:49;;;;;;;28.65;17.52;;;;;;;;;;5081399;28;20098;-61
2022/04/14 08:30:16;;;;;;;26.35;17.80;;;;;;;;;;5082092;28;20047;-61
2022/04/14 08:32:44;;;;;;;21.83;15.88;;;;;;;;;;5083889;28;20044;-61
2022/04/14 08:35:10;;;;;;;24.77;16.15;;;;;;;;;;5081441;28;20055;-60
2022/04/14 08:37:36;;;;;;;19.17;15.13;;;;;;;;;;5082184;28;20459;-61
2022/04/14 08:40:05;;;;;;;26.92;17.30;;;;;;;;;;5085045;28;20525;-60
2022/04/14 08:42:39;;;;;;;18.55;13.57;;;;;;;;;;5061276;28;20063;-61
2022/04/14 08:45:06;;;;;;;18.00;13.90;;;;;;;;;;5082934;28;20040;-61
2022/04/14 08:47:34;;;;;;;21.13;13.63;;;;;;;;;;5080974;28;20040;-61
2022/04/14 08:50:01;;;;;;;22.40;12.75;;;;;;;;;;5084188;28;20357;-61
2022/04/14 08:52:27;;;;;;;21.13;14.18;;;;;;;;;;5083025;28;20040;-61
2022/04/14 08:54:56;;;;;;;22.10;13.75;;;;;;;;;;5086032;28;20050;-61
2022/04/14 08:57:24;;;;;;;18.88;13.70;;;;;;;;;;5080749;28;20118;-61
2022/04/14 08:59:50;;;;;;;22.58;12.88;;;;;;;;;;5079855;28;20335;-61
2022/04/14 09:02:21;;;;;;;18.95;12.25;;;;;;;;;;5064432;28;20479;-61
2022/04/14 09:04:49;;;;;;;21.65;13.85;;;;;;;;;;5084271;28;20044;-61
2022/04/14 09:07:15;;;;;;;16.58;11.82;;;;;;;;;;5085523;28;20124;-60
2022/04/14 09:09:42;;;;;;;19.25;12.75;;;;;;;;;;5080108;28;20039;-60
2022/04/14 09:12:08;;;;;;;17.33;11.30;;;;;;;;;;5060476;28;20036;-61
2022/04/14 09:14:34;;;;;;;14.98;10.20;;;;;;;;;;5084354;28;20057;-61
2022/04/14 09:17:04;;;;;;;20.60;10.18;;;;;;;;;;5075298;28;20051;-61
2022/04/14 09:19:31;;;;;;;16.08;9.88;;;;;;;;;;5073525;28;20437;-61
2022/04/14 09:21:58;;;;;;;17.08;9.75;;;;;;;;;;5059168;28;20494;-61
2022/04/14 09:24:43;;;;;;;13.13;8.40;;;;;;;;;;5084746;28;20051;-61
2022/04/14 09:27:10;;;;;;;12.07;8.05;;;;;;;;;;5077270;28;20044;-62
2022/04/14 09:29:36;;;;;;;13.38;6.93;;;;;;;;;;5080696;28;20562;-60
2022/04/14 09:32:02;;;;;;;9.18;6.03;;;;;;;;;;5078746;28;20470;-61
2022/04/14 09:34:49;;;;;;;13.68;6.80;;;;;;;;;;5079481;28;20105;-61
2022/04/14 09:37:15;;;;;;;8.98;6.55;;;;;;;;;;5080330;28;20063;-61
2022/04/14 09:39:51;;;;;;;10.07;7.40;;;;;;;;;;5078443;28;20414;-61
2022/04/14 09:42:18;;;;;;;12.27;6.28;;;;;;;;;;5079024;28;20482;-61
2022/04/14 09:44:44;;;;;;;11.20;5.70;;;;;;;;;;5083129;28;20169;-61
2022/04/14 09:47:10;;;;;;;5.95;4.63;;;;;;;;;;5084040;28;20405;-61
2022/04/14 09:49:42;;;;;;;7.70;5.68;;;;;;;;;;5079942;28;20055;-61
2022/04/14 09:52:09;;;;;;;6.97;5.13;;;;;;;;;;5086114;28;20123;-61
2022/04/14 09:54:35;;;;;;;7.07;3.92;;;;;;;;;;5084674;28;20040;-61
2022/04/14 09:57:01;;;;;;;7.78;3.47;;;;;;;;;;5085290;28;20126;-61
2022/04/14 09:59:28;;;;;;;8.43;4.65;;;;;;;;;;5087149;28;20056;-61
2022/04/14 10:02:16;;;;;;;7.45;3.40;;;;;;;;;;5087873;28;20043;-61
2022/04/14 10:04:49;;;;;;;7.93;4.55;;;;;;;;;;5082266;28;20041;-61
2022/04/14 10:07:15;;;;;;;;;;;;;;;;;;5087307;28;20420;-61
2022/04/14 10:09:42;;;;;;;7.22;3.22;;;;;;;;;;5087204;28;20098;-61
2022/04/14 10:12:34;;;;;;;9.68;3.85;;;;;;;;;;5068519;28;20397;-61
2022/04/14 10:15:02;;;;;;;6.97;3.67;;;;;;;;;;5079306;28;20056;-62
2022/04/14 10:17:29;;;;;;;6.68;3.47;;;;;;;;;;5068624;28;20089;-62
2022/04/14 10:19:55;;;;;;;6.03;3.70;;;;;;;;;;5087742;28;20046;-62
2022/04/14 10:22:21;;;;;;;7.32;3.78;;;;;;;;;;5087228;28;20459;-62
2022/04/14 10:24:48;;;;;;;8.50;4.22;;;;;;;;;;5084486;28;20036;-62
2022/04/14 10:27:17;;;;;;;11.05;4.13;;;;;;;;;;5085857;28;20710;-62
2022/04/14 10:29:44;;;;;;;5.10;3.03;;;;;;;;;;5084938;28;20032;-59
2022/04/14 10:32:11;;;;;;;7.45;3.97;;;;;;;;;;5085148;28;20044;-62
2022/04/14 10:34:38;;;;;;;5.45;4.18;;;;;;;;;;5067458;28;20032;-60
2022/04/14 10:37:07;;;;;;;6.72;3.72;;;;;;;;;;5086946;28;20075;-60
2022/04/14 10:39:36;;;;;;;7.25;4.40;;;;;;;;;;5084262;28;20054;-60
2022/04/14 10:42:03;;;;;;;10.10;5.75;;;;;;;;;;5084324;28;20047;-59
2022/04/14 10:44:49;;;;;;;12.98;7.15;;;;;;;;;;5084526;28;20036;-60
2022/04/14 10:47:33;;;;;;;9.32;5.05;;;;;;;;;;5066954;28;20052;-60
2022/04/14 10:49:59;;;;;;;8.30;4.63;;;;;;;;;;5077568;28;20146;-62
2022/04/14 10:52:26;;;;;;;8.50;5.30;;;;;;;;;;5085161;28;20169;-60
2022/04/14 10:54:59;;;;;;;8.77;4.45;;;;;;;;;;5081611;28;20043;-60
2022/04/14 10:57:39;;;;;;;6.20;3.97;;;;;;;;;;5085881;28;20040;-60
2022/04/14 11:00:20;;;;;;;8.85;5.30;;;;;;;;;;5082690;28;20171;-60
2022/04/14 11:03:01;;;;;;;7.40;4.43;;;;;;;;;;5084206;28;20043;-60
2022/04/14 11:05:37;;;;;;;8.15;4.38;;;;;;;;;;5066459;28;20044;-60
2022/04/14 11:08:22;;;;;;;6.72;4.57;;;;;;;;;;5066990;28;20355;-62
2022/04/14 11:11:08;;;;;;;6.60;4.70;;;;;;;;;;5085095;28;20381;-60
2022/04/14 11:13:53;;;;;;;5.53;3.25;;;;;;;;;;5083769;28;20427;-60
2022/04/14 11:16:38;;;;;;;8.55;4.22;;;;;;;;;;5083803;28;20032;-60
2022/04/14 11:19:30;;;;;;;8.05;3.35;;;;;;;;;;5084809;28;20089;-62
2022/04/14 11:22:02;;;;;;;5.57;3.63;;;;;;;;;;5078837;28;20569;-62
2022/04/14 11:24:40;;;;;;;5.65;3.45;;;;;;;;;;5085037;28;20040;-60
2022/04/14 11:27:09;;;;;;;5.55;3.58;;;;;;;;;;5067929;28;20527;-60
2022/04/14 11:29:36;;;;;;;7.60;3.30;;;;;;;;;;5076124;28;20040;-60
2022/04/14 11:32:02;;;;;;;9.20;3.47;;;;;;;;;;5084422;28;20264;-60
2022/04/14 11:34:32;;;;;;;5.95;3.67;;;;;;;;;;5084677;28;20119;-60
2022/04/14 11:36:59;;;;;;;8.55;4.90;;;;;;;;;;5067177;28;20089;-60
2022/04/14 11:39:25;;;;;;;7.93;4.68;;;;;;;;;;5081693;28;20040;-60
2022/04/14 11:41:56;;;;;;;9.50;4.80;;;;;;;;;;5080232;28;20040;-61
2022/04/14 11:44:31;;;;;;;9.65;5.40;;;;;;;;;;5085370;28;20783;-61
2022/04/14 11:47:07;;;;;;;8.90;6.20;;;;;;;;;;5085652;28;20040;-61
2022/04/14 11:49:34;;;;;;;6.20;4.90;;;;;;;;;;5079188;28;20056;-61
2022/04/14 11:52:00;;;;;;;10.85;6.32;;;;;;;;;;5081933;28;20040;-61
2022/04/14 11:54:29;;;;;;;8.63;6.35;;;;;;;;;;5076235;28;20039;-61
2022/04/14 11:57:00;;;;;;;10.45;5.72;;;;;;;;;;5076084;28;20082;-61
2022/04/14 11:59:31;;;;;;;10.52;6.00;;;;;;;;;;5083669;28;20040;-61
2022/04/14 12:02:01;;;;;;;10.75;6.30;;;;;;;;;;5065718;28;20508;-61
2022/04/14 12:04:27;;;;;;;11.35;5.15;;;;;;;;;;5078904;28;20504;-61
2022/04/14 12:06:54;;;;;;;11.77;8.35;;;;;;;;;;5079992;28;20033;-61
2022/04/14 12:09:21;;;;;;;11.38;8.63;;;;;;;;;;5079767;28;20036;-61
2022/04/14 12:11:47;;;;;;;8.27;4.78;;;;;;;;;;5082333;28;20075;-61
2022/04/14 12:14:14;;;;;;;9.85;5.68;;;;;;;;;;5084253;28;20047;-61
2022/04/14 12:16:47;;;;;;;10.10;4.90;;;;;;;;;;5080448;28;20443;-61
2022/04/14 12:19:14;;;;;;;8.40;5.53;;;;;;;;;;5082166;28;20347;-61
2022/04/14 12:21:40;;;;;;;12.23;5.90;;;;;;;;;;5082228;28;20063;-61
2022/04/14 12:24:06;;;;;;;7.70;5.30;;;;;;;;;;5085800;28;20076;-61
2022/04/14 12:26:35;;;;;;;9.82;5.25;;;;;;;;;;5082994;28;20067;-61
2022/04/14 12:29:02;;;;;;;10.00;6.07;;;;;;;;;;5081671;28;20110;-61
2022/04/14 12:31:30;;;;;;;9.45;6.13;;;;;;;;;;5086070;28;20067;-61
2022/04/14 12:34:00;;;;;;;11.85;6.28;;;;;;;;;;5081464;28;20050;-61
2022/04/14 12:36:33;;;;;;;10.35;6.00;;;;;;;;;;5047757;28;20046;-61
2022/04/14 12:38:59;;;;;;;10.00;5.13;;;;;;;;;;5079166;28;20051;-61
2022/04/14 12:41:32;;;;;;;6.95;4.15;;;;;;;;;;5083276;28;20556;-61
2022/04/14 12:43:59;;;;;;;5.93;4.13;;;;;;;;;;5085033;28;20031;-61
2022/04/14 12:46:26;;;;;;;8.43;3.78;;;;;;;;;;5083277;28;20401;-61
2022/04/14 12:49:11;;;;;;;6.25;3.47;;;;;;;;;;5078477;28;20086;-61
2022/04/14 12:51:45;;;;;;;9.13;5.03;;;;;;;;;;5081390;28;20039;-61
2022/04/14 12:54:17;;;;;;;9.38;4.32;;;;;;;;;;5081453;28;20500;-61
2022/04/14 12:57:00;;;;;;;7.88;4.20;;;;;;;;;;5081883;28;20044;-61
2022/04/14 12:59:26;;;;;;;;;;;;;;;;;;5082921;28;20036;-61
2022/04/14 13:01:55;;;;;;;6.63;3.70;;;;;;;;;;5082019;28;20355;-61
2022/04/14 13:04:31;;;;;;;6.63;4.03;;;;;;;;;;5080151;28;20043;-61
2022/04/14 13:07:05;;;;;;;5.40;3.72;;;;;;;;;;5084360;28;20551;-61
2022/04/14 13:09:32;;;;;;;10.48;5.22;;;;;;;;;;5079033;28;20465;-61
2022/04/14 13:11:58;;;;;;;9.88;5.10;;;;;;;;;;5082653;28;20101;-61
2022/04/14 13:14:26;;;;;;;7.75;4.00;;;;;;;;;;5081261;28;20047;-61
2022/04/14 13:16:53;;;;;;;7.45;4.10;;;;;;;;;;5082722;28;20409;-61
2022/04/14 13:19:19;;;;;;;6.68;4.40;;;;;;;;;;5080994;28;20044;-61
2022/04/14 13:21:46;;;;;;;7.97;4.22;;;;;;;;;;5083821;28;20378;-61
2022/04/14 13:24:12;;;;;;;6.70;4.00;;;;;;;;;;5085310;28;20568;-61
2022/04/14 13:26:38;;;;;;;7.53;5.13;;;;;;;;;;5084489;28;20698;-61
2022/04/14 13:29:04;;;;;;;9.07;5.22;;;;;;;;;;5082768;28;20447;-61
2022/04/14 13:31:31;;;;;;;12.07;6.18;;;;;;;;;;5086703;28;20070;-61
2022/04/14 13:33:57;;;;;;;10.15;7.45;;;;;;;;;;5067273;28;20043;-62
2022/04/14 13:36:23;;;;;;;14.73;8.43;;;;;;;;;;5064016;28;20111;-61
2022/04/14 13:38:50;;;;;;;13.35;7.82;;;;;;;;;;5086394;28;20618;-61
2022/04/14 13:41:16;;;;;;;13.35;8.05;;;;;;;;;;5085013;28;20067;-61
2022/04/14 13:43:42;;;;;;;13.45;7.88;;;;;;;;;;5088153;28;20047;-61
2022/04/14 13:46:08;;;;;;;12.88;8.32;;;;;;;;;;5089011;28;20035;-61
2022/04/14 13:48:34;;;;;;;14.65;7.55;;;;;;;;;;5069306;28;20059;-61
2022/04/14 13:51:01;;;;;;;11.30;7.07;;;;;;;;;;5086302;28;20127;-61
2022/04/14 13:53:28;;;;;;;14.68;8.55;;;;;;;;;;5085671;28;20040;-61
2022/04/14 13:55:54;;;;;;;15.10;8.20;;;;;;;;;;5086173;28;20101;-61
2022/04/14 13:58:21;;;;;;;12.60;7.82;;;;;;;;;;5088316;28;20042;-60
2022/04/14 14:00:51;;;;;;;21.17;8.38;;;;;;;;;;5082497;28;20044;-60
2022/04/14 14:03:17;;;;;;;11.35;7.80;;;;;;;;;;5084939;28;20040;-60
2022/04/14 14:05:44;;;;;;;15.45;6.95;;;;;;;;;;5086103;28;20040;-59
2022/04/14 14:08:10;;;;;;;9.85;6.13;;;;;;;;;;5087040;28;20035;-63
2022/04/14 14:10:40;;;;;;;12.40;6.10;;;;;;;;;;5084455;28;20116;-63
2022/04/14 14:13:07;;;;;;;12.32;7.13;;;;;;;;;;5080588;28;20047;-63
2022/04/14 14:15:33;;;;;;;7.45;5.47;;;;;;;;;;5084811;28;20079;-65
2022/04/14 14:17:59;;;;;;;7.55;5.40;;;;;;;;;;5085250;28;20035;-63
2022/04/14 14:20:26;;;;;;;12.60;5.93;;;;;;;;;;5086192;28;20141;-65
2022/04/14 14:22:52;;;;;;;9.15;5.45;;;;;;;;;;5083515;28;20035;-65
2022/04/14 14:25:18;;;;;;;8.35;4.60;;;;;;;;;;5084821;28;20408;-64
2022/04/14 14:27:44;;;;;;;9.15;4.50;;;;;;;;;;5087439;28;20114;-65
2022/04/14 14:30:12;;;;;;;7.82;3.53;;;;;;;;;;5085876;28;20131;-62